createdAt,value
2022-10-09T00:01:25.767Z,51.13
2022-10-09T00:04:11.861Z,51.28
2022-10-09T00:06:57.959Z,51.44
2022-10-09T00:09:43.829Z,51.42
2022-10-09T00:12:29.821Z,51.50
2022-10-09T00:15:16.140Z,51.70
2022-10-09T00:18:02.233Z,51.63
2022-10-09T00:20:48.265Z,51.48
2022-10-09T00:23:34.299Z,51.80
2022-10-09T00:26:20.327Z,51.65
2022-10-09T00:29:06.635Z,51.68
2022-10-09T00:31:52.632Z,51.75
2022-10-09T00:34:38.591Z,52.00
2022-10-09T00:37:24.707Z,52.05
2022-10-09T00:40:10.845Z,52.28
2022-10-09T00:42:58.266Z,52.08
2022-10-09T00:45:49.407Z,51.89
2022-10-09T00:48:35.501Z,52.18
2022-10-09T00:51:21.277Z,51.85
2022-10-09T00:54:09.286Z,52.17
2022-10-09T00:56:55.602Z,51.93
2022-10-09T00:59:41.722Z,52.26
2022-10-09T01:02:31.690Z,51.98
2022-10-09T01:05:19.238Z,52.27
2022-10-09T01:08:16.327Z,52.46
2022-10-09T01:11:22.184Z,52.15
2022-10-09T01:14:17.680Z,52.12
2022-10-09T01:17:15.456Z,52.30
2022-10-09T01:20:17.874Z,52.58
2022-10-09T01:23:16.965Z,52.13
2022-10-09T01:26:34.240Z,52.46
2022-10-09T01:29:22.722Z,52.61
2022-10-09T01:32:15.972Z,52.60
2022-10-09T01:35:03.874Z,52.51
2022-10-09T01:37:53.882Z,52.57
2022-10-09T01:40:45.337Z,52.64
2022-10-09T01:43:34.070Z,52.79
2022-10-09T01:46:33.465Z,52.67
2022-10-09T01:49:54.575Z,53.21
2022-10-09T01:52:50.779Z,52.56
2022-10-09T01:55:53.933Z,52.88
2022-10-09T01:59:00.314Z,52.85
2022-10-09T02:01:48.749Z,52.85
2022-10-09T02:04:37.992Z,52.71
2022-10-09T02:07:26.015Z,52.92
2022-10-09T02:10:20.611Z,53.02
2022-10-09T02:13:09.485Z,52.75
2022-10-09T02:16:18.457Z,53.10
2022-10-09T02:19:18.969Z,52.97
2022-10-09T02:22:20.432Z,53.16
2022-10-09T02:25:14.086Z,52.98
2022-10-09T02:28:06.292Z,52.99
2022-10-09T02:31:04.056Z,53.01
2022-10-09T02:33:59.501Z,53.07
2022-10-09T02:36:48.130Z,52.99
2022-10-09T02:39:39.116Z,53.21
2022-10-09T02:42:31.000Z,53.23
2022-10-09T02:45:21.996Z,53.27
2022-10-09T02:48:13.600Z,53.07
2022-10-09T02:51:04.630Z,53.19
2022-10-09T02:53:56.951Z,53.48
2022-10-09T02:56:45.779Z,53.17
2022-10-09T02:59:33.510Z,53.28
2022-10-09T03:02:24.829Z,53.19
2022-10-09T03:05:15.184Z,53.43
2022-10-09T03:08:03.024Z,53.27
2022-10-09T03:10:51.005Z,52.73
2022-10-09T03:13:40.494Z,53.04
2022-10-09T03:16:33.985Z,53.24
2022-10-09T03:19:21.100Z,53.26
2022-10-09T03:22:12.085Z,53.24
2022-10-09T03:25:02.547Z,53.06
2022-10-09T03:27:50.295Z,53.41
2022-10-09T03:30:42.702Z,53.31
2022-10-09T03:33:30.660Z,53.14
2022-10-09T03:36:18.577Z,53.42
2022-10-09T03:39:08.773Z,53.36
2022-10-09T03:41:59.362Z,53.43
2022-10-09T03:44:46.753Z,53.29
2022-10-09T03:47:34.577Z,53.80
2022-10-09T03:50:22.543Z,53.62
2022-10-09T03:53:14.766Z,53.54
2022-10-09T03:56:04.561Z,53.38
2022-10-09T03:58:52.590Z,53.77
2022-10-09T04:01:40.378Z,53.75
2022-10-09T04:04:28.403Z,53.85
2022-10-09T04:07:16.696Z,53.69
2022-10-09T04:10:04.528Z,53.74
2022-10-09T04:12:52.119Z,53.62
2022-10-09T04:15:40.455Z,54.00
2022-10-09T04:18:32.052Z,53.94
2022-10-09T04:21:20.579Z,54.18
2022-10-09T04:24:09.092Z,54.09
2022-10-09T04:26:57.752Z,54.03
2022-10-09T04:29:45.989Z,53.78
2022-10-09T04:32:34.169Z,53.77
2022-10-09T04:35:27.443Z,54.25
2022-10-09T04:38:14.873Z,54.05
2022-10-09T04:41:07.750Z,54.06
2022-10-09T04:43:57.956Z,54.03
2022-10-09T04:46:45.559Z,54.12
2022-10-09T04:49:33.519Z,54.24
2022-10-09T04:52:20.875Z,54.26
2022-10-09T04:55:09.480Z,54.20
2022-10-09T04:58:04.051Z,54.13
2022-10-09T05:00:51.893Z,54.27
2022-10-09T05:03:40.442Z,54.35
2022-10-09T05:06:27.247Z,54.39
2022-10-09T05:09:14.175Z,54.33
2022-10-09T05:12:02.302Z,54.44
2022-10-09T05:14:53.336Z,54.45
2022-10-09T05:17:40.898Z,54.60
2022-10-09T05:20:37.056Z,54.62
2022-10-09T05:23:28.565Z,54.65
2022-10-09T05:26:20.093Z,55.00
2022-10-09T05:29:07.380Z,54.89
2022-10-09T05:31:54.822Z,54.71
2022-10-09T05:34:45.794Z,54.62
2022-10-09T05:37:39.047Z,54.98
2022-10-09T05:40:29.217Z,55.03
2022-10-09T05:43:29.663Z,55.13
2022-10-09T05:46:25.167Z,55.08
2022-10-09T06:02:53.921Z,58.24
2022-10-09T06:05:53.776Z,58.67
2022-10-09T06:08:43.273Z,58.37
2022-10-09T06:11:35.550Z,57.96
2022-10-09T06:14:27.539Z,57.95
2022-10-09T06:17:14.344Z,57.21
2022-10-09T06:20:01.499Z,56.89
2022-10-09T06:22:48.324Z,56.66
2022-10-09T06:25:35.826Z,56.15
2022-10-09T06:28:29.065Z,56.06
2022-10-09T06:31:27.740Z,55.85
2022-10-09T06:34:20.499Z,55.79
2022-10-09T06:37:28.261Z,55.95
2022-10-09T06:40:23.793Z,55.48
2022-10-09T06:43:16.118Z,55.68
2022-10-09T06:46:06.645Z,55.91
2022-10-09T06:49:03.333Z,55.50
2022-10-09T06:51:53.538Z,55.34
2022-10-09T06:54:50.367Z,55.55
2022-10-09T06:57:37.255Z,55.64
2022-10-09T07:00:23.145Z,55.41
2022-10-09T07:03:08.931Z,55.34
2022-10-09T07:05:56.981Z,54.93
2022-10-09T07:08:48.458Z,55.15
2022-10-09T07:11:40.222Z,54.83
2022-10-09T07:14:26.582Z,55.00
2022-10-09T07:17:12.639Z,55.15
2022-10-09T07:19:58.832Z,54.89
2022-10-09T07:22:44.921Z,54.85
2022-10-09T07:25:30.757Z,54.75
2022-10-09T07:28:16.826Z,54.84
2022-10-09T07:31:04.341Z,55.32
2022-10-09T07:33:51.497Z,55.31
2022-10-09T07:36:37.852Z,55.03
2022-10-09T07:39:23.675Z,55.13
2022-10-09T07:42:09.517Z,54.93
2022-10-09T07:44:55.568Z,55.16
2022-10-09T07:47:41.347Z,55.17
2022-10-09T07:50:27.334Z,54.94
2022-10-09T07:53:13.323Z,54.84
2022-10-09T07:55:59.268Z,54.59
2022-10-09T07:58:51.934Z,54.61
2022-10-09T08:01:39.196Z,54.92
2022-10-09T08:04:25.257Z,54.57
2022-10-09T08:07:11.239Z,54.67
2022-10-09T08:09:57.271Z,54.53
2022-10-09T08:12:43.169Z,54.33
2022-10-09T08:15:29.164Z,54.31
2022-10-09T08:18:15.400Z,54.44
2022-10-09T08:21:03.840Z,54.49
2022-10-09T08:23:54.140Z,54.28
2022-10-09T08:26:44.352Z,54.37
2022-10-09T08:29:30.697Z,54.33
2022-10-09T08:32:16.823Z,54.46
2022-10-09T08:35:03.408Z,53.91
2022-10-09T08:37:49.661Z,54.22
2022-10-09T08:40:58.303Z,53.80
2022-10-09T08:43:47.578Z,53.81
2022-10-09T08:46:46.819Z,54.30
2022-10-09T08:50:02.091Z,54.22
2022-10-09T08:53:25.770Z,53.97
2022-10-09T08:56:14.595Z,54.08
2022-10-09T08:59:02.168Z,53.71
2022-10-09T09:01:52.878Z,53.62
2022-10-09T09:04:38.916Z,53.74
2022-10-09T09:07:24.955Z,53.21
2022-10-09T09:10:28.001Z,53.17
2022-10-09T09:13:29.327Z,52.98
2022-10-09T09:16:25.020Z,52.09
2022-10-09T09:19:37.515Z,52.88
2022-10-09T09:22:27.274Z,53.06
2022-10-09T09:25:24.628Z,52.73
2022-10-09T09:28:35.062Z,52.92
2022-10-09T09:31:28.592Z,52.31
2022-10-09T09:34:39.581Z,51.96
2022-10-09T09:37:25.938Z,52.18
2022-10-09T09:40:36.856Z,51.76
2022-10-09T09:43:24.663Z,52.01
2022-10-09T09:46:40.889Z,51.02
2022-10-09T09:49:29.969Z,52.03
2022-10-09T09:52:16.182Z,51.93
2022-10-09T09:55:02.492Z,51.30
2022-10-09T09:57:49.129Z,51.58
2022-10-09T10:00:35.894Z,51.25
2022-10-09T10:03:24.718Z,51.10
2022-10-09T10:06:44.168Z,51.14
2022-10-09T10:09:31.839Z,50.86
2022-10-09T10:12:18.605Z,50.92
2022-10-09T10:15:05.063Z,50.89
2022-10-09T10:18:14.320Z,50.86
2022-10-09T10:21:08.764Z,50.48
2022-10-09T10:24:03.711Z,49.39
2022-10-09T10:26:55.694Z,50.09
2022-10-09T10:29:44.330Z,50.00
2022-10-09T10:32:46.944Z,49.64
2022-10-09T10:35:34.315Z,50.75
2022-10-09T10:38:30.484Z,49.73
2022-10-09T10:41:37.824Z,49.88
2022-10-09T10:44:40.218Z,49.56
2022-10-09T10:47:30.953Z,49.21
2022-10-09T10:50:17.602Z,48.96
2022-10-09T10:53:11.470Z,48.90
2022-10-09T10:56:04.943Z,48.78
2022-10-09T10:59:21.139Z,48.48
2022-10-09T11:02:10.085Z,48.50
2022-10-09T11:05:01.899Z,48.15
2022-10-09T11:08:03.453Z,48.46
2022-10-09T11:11:07.990Z,48.29
2022-10-09T11:14:14.555Z,48.28
2022-10-09T11:17:31.973Z,47.28
2022-10-09T11:20:42.805Z,48.10
2022-10-09T11:23:55.371Z,48.16
2022-10-09T11:27:29.714Z,48.07
2022-10-09T11:30:17.574Z,47.88
2022-10-09T11:33:31.364Z,46.47
2022-10-09T11:36:26.982Z,47.16
2022-10-09T11:39:18.216Z,47.38
2022-10-09T11:42:05.377Z,47.19
2022-10-09T11:45:14.443Z,47.17
2022-10-09T11:48:25.018Z,46.89
2022-10-09T11:51:29.754Z,47.37
2022-10-09T11:54:17.922Z,47.07
2022-10-09T11:57:06.427Z,47.17
2022-10-09T12:00:04.581Z,47.02
2022-10-09T12:02:59.036Z,44.40
2022-10-09T12:05:47.469Z,47.05
2022-10-09T12:08:33.704Z,47.06
2022-10-09T12:11:20.310Z,47.04
2022-10-09T12:14:08.599Z,46.74
2022-10-09T12:16:54.889Z,46.90
2022-10-09T12:19:42.070Z,46.85
2022-10-09T12:22:35.901Z,46.49
2022-10-09T12:25:30.979Z,46.69
2022-10-09T12:28:30.169Z,46.50
2022-10-09T12:31:21.985Z,46.36
2022-10-09T12:34:24.449Z,46.53
2022-10-09T12:37:12.596Z,47.34
2022-10-09T12:40:14.408Z,46.47
2022-10-09T12:43:07.031Z,46.72
2022-10-09T12:45:54.452Z,46.45
2022-10-09T12:48:42.461Z,46.32
2022-10-09T12:51:32.453Z,46.31
2022-10-09T12:54:18.693Z,46.27
2022-10-09T12:57:04.854Z,46.38
2022-10-09T12:59:51.310Z,46.06
2022-10-09T13:02:37.813Z,46.26
2022-10-09T13:05:24.062Z,46.24
2022-10-09T13:08:26.355Z,45.93
2022-10-09T13:11:18.176Z,46.09
2022-10-09T13:14:04.906Z,45.72
2022-10-09T13:16:50.826Z,46.01
2022-10-09T13:19:37.211Z,45.86
2022-10-09T13:22:25.542Z,45.76
2022-10-09T13:25:11.509Z,45.85
2022-10-09T13:27:57.907Z,45.87
2022-10-09T13:30:44.212Z,45.51
2022-10-09T13:33:29.934Z,45.25
2022-10-09T13:36:17.174Z,45.03
2022-10-09T13:39:03.521Z,44.87
2022-10-09T13:41:52.990Z,44.45
2022-10-09T13:44:39.126Z,44.36
2022-10-09T13:47:25.202Z,43.96
2022-10-09T13:50:14.105Z,43.87
2022-10-09T13:53:00.302Z,43.78
2022-10-09T13:55:46.147Z,43.41
2022-10-09T13:58:31.937Z,43.10
2022-10-09T14:01:17.932Z,43.22
2022-10-09T14:04:03.989Z,43.12
2022-10-09T14:06:50.231Z,43.48
2022-10-09T14:09:36.906Z,43.27
2022-10-09T14:12:23.233Z,42.90
2022-10-09T14:15:09.682Z,42.80
2022-10-09T14:17:55.679Z,42.35
2022-10-09T14:20:41.637Z,41.58
2022-10-09T14:23:27.566Z,41.28
2022-10-09T14:26:13.673Z,41.56
2022-10-09T14:29:01.873Z,41.23
2022-10-09T14:31:51.075Z,41.06
2022-10-09T14:34:36.924Z,41.43
2022-10-09T14:37:40.917Z,41.08
2022-10-09T14:40:27.863Z,40.92
2022-10-09T14:43:13.971Z,40.88
2022-10-09T14:46:12.161Z,40.88
2022-10-09T14:48:59.023Z,41.24
2022-10-09T14:51:45.216Z,41.30
2022-10-09T14:54:31.345Z,41.10
2022-10-09T14:57:17.324Z,41.27
2022-10-09T15:00:05.159Z,42.09
2022-10-09T15:02:51.113Z,41.82
2022-10-09T15:05:37.302Z,42.16
2022-10-09T15:08:23.252Z,42.31
2022-10-09T15:11:10.605Z,42.57
2022-10-09T15:13:56.551Z,42.91
2022-10-09T15:16:42.397Z,42.80
2022-10-09T15:19:28.325Z,43.23
2022-10-09T15:22:14.280Z,43.17
2022-10-09T15:25:00.330Z,43.12
2022-10-09T15:27:46.603Z,43.18
2022-10-09T15:30:34.239Z,43.05
2022-10-09T15:33:22.303Z,43.23
2022-10-09T15:36:08.283Z,42.86
2022-10-09T15:38:54.391Z,43.19
2022-10-09T15:41:42.224Z,43.38
2022-10-09T15:44:28.274Z,43.47
2022-10-09T15:47:16.789Z,43.33
2022-10-09T15:50:03.802Z,43.28
2022-10-09T15:52:49.984Z,43.57
2022-10-09T15:55:39.550Z,43.26
2022-10-09T15:58:25.625Z,43.74
2022-10-09T16:01:14.946Z,43.81
2022-10-09T16:04:00.920Z,43.95
2022-10-09T16:06:46.861Z,43.95
2022-10-09T16:09:34.323Z,44.21
2022-10-09T16:12:20.282Z,44.12
2022-10-09T16:15:06.646Z,44.54
2022-10-09T16:17:52.620Z,44.39
2022-10-09T16:20:40.424Z,44.63
2022-10-09T16:23:26.815Z,44.74
2022-10-09T16:26:15.878Z,44.84
2022-10-09T16:29:02.063Z,44.75
2022-10-09T16:31:47.975Z,44.88
2022-10-09T16:34:34.040Z,45.04
2022-10-09T16:37:19.939Z,44.92
2022-10-09T16:40:06.445Z,45.22
2022-10-09T16:42:52.556Z,45.00
2022-10-09T16:45:39.432Z,45.25
2022-10-09T16:48:25.423Z,45.50
2022-10-09T16:51:14.180Z,45.27
2022-10-09T16:54:01.919Z,45.63
2022-10-09T16:56:47.914Z,45.62
2022-10-09T16:59:33.994Z,45.65
2022-10-09T17:02:20.139Z,45.65
2022-10-09T17:05:07.424Z,45.72
2022-10-09T17:07:54.580Z,45.82
2022-10-09T17:10:42.276Z,45.98
2022-10-09T17:13:28.379Z,45.97
2022-10-09T17:16:18.714Z,46.08
2022-10-09T17:19:05.383Z,45.91
2022-10-09T17:21:51.660Z,46.46
2022-10-09T17:24:37.807Z,46.29
2022-10-09T17:27:24.229Z,46.29
2022-10-09T17:30:13.122Z,46.61
2022-10-09T17:32:59.426Z,46.76
2022-10-09T17:35:45.597Z,46.63
2022-10-09T17:38:31.503Z,46.84
2022-10-09T17:41:19.373Z,46.88
2022-10-09T17:44:05.845Z,46.86
2022-10-09T17:46:51.810Z,46.97
2022-10-09T17:49:38.027Z,46.97
2022-10-09T17:52:23.958Z,46.89
2022-10-09T17:55:09.934Z,46.99
2022-10-09T17:57:56.199Z,47.33
2022-10-09T18:00:42.483Z,47.18
2022-10-09T18:03:28.608Z,46.99
2022-10-09T18:06:18.088Z,47.34
2022-10-09T18:09:04.603Z,47.62
2022-10-09T18:11:50.825Z,47.59
2022-10-09T18:14:36.770Z,47.83
2022-10-09T18:17:22.667Z,47.67
2022-10-09T18:20:09.042Z,48.00
2022-10-09T18:22:55.329Z,48.24
2022-10-09T18:25:44.888Z,48.23
2022-10-09T18:28:30.706Z,48.07
2022-10-09T18:31:19.435Z,48.40
2022-10-09T18:34:06.265Z,48.26
2022-10-09T18:36:52.602Z,48.17
2022-10-09T18:39:38.808Z,48.26
2022-10-09T18:42:25.094Z,48.27
2022-10-09T18:45:13.295Z,48.71
2022-10-09T18:48:00.844Z,48.66
2022-10-09T18:50:47.341Z,48.81
2022-10-09T18:53:36.001Z,49.04
2022-10-09T18:56:22.848Z,48.77
2022-10-09T18:59:12.232Z,48.66
2022-10-09T19:01:58.388Z,48.79
2022-10-09T19:04:44.474Z,49.07
2022-10-09T19:07:30.374Z,48.90
2022-10-09T19:10:16.551Z,48.99
2022-10-09T19:13:02.631Z,49.02
2022-10-09T19:15:56.683Z,49.25
2022-10-09T19:18:42.834Z,49.23
2022-10-09T19:21:28.805Z,49.38
2022-10-09T19:24:14.981Z,49.38
2022-10-09T19:27:04.144Z,49.32
2022-10-09T19:29:50.167Z,49.38
2022-10-09T19:32:36.129Z,49.63
2022-10-09T19:35:22.479Z,49.35
2022-10-09T19:38:08.462Z,49.51
2022-10-09T19:40:54.541Z,49.53
2022-10-09T19:43:41.402Z,49.69
2022-10-09T19:46:27.716Z,49.71
2022-10-09T19:49:14.094Z,49.72
2022-10-09T19:52:00.350Z,49.52
2022-10-09T19:54:46.259Z,49.47
2022-10-09T19:57:32.195Z,49.89
2022-10-09T20:00:18.204Z,49.93
2022-10-09T20:03:04.145Z,49.85
2022-10-09T20:05:50.217Z,49.86
2022-10-09T20:08:37.638Z,50.10
2022-10-09T20:11:23.816Z,49.98
2022-10-09T20:14:10.997Z,50.08
2022-10-09T20:16:56.898Z,50.13
2022-10-09T20:19:45.780Z,50.37
2022-10-09T20:22:31.805Z,50.46
2022-10-09T20:25:18.081Z,50.06
2022-10-09T20:28:04.367Z,50.37
2022-10-09T20:30:58.158Z,50.61
2022-10-09T20:33:45.413Z,50.17
2022-10-09T20:36:35.460Z,50.53
2022-10-09T20:39:21.973Z,50.66
2022-10-09T20:42:08.181Z,50.67
2022-10-09T20:44:54.470Z,50.93
2022-10-09T20:47:40.622Z,50.71
2022-10-09T20:50:26.689Z,50.72
2022-10-09T20:53:12.665Z,50.34
2022-10-09T20:56:08.594Z,50.91
2022-10-09T20:58:55.762Z,50.72
2022-10-09T21:01:41.775Z,50.90
2022-10-09T21:04:27.746Z,50.75
2022-10-09T21:07:13.724Z,50.63
2022-10-09T21:09:59.579Z,51.10
2022-10-09T21:12:45.580Z,51.15
2022-10-09T21:15:31.798Z,51.31
2022-10-09T21:18:18.900Z,51.40
2022-10-09T21:21:16.359Z,51.65
2022-10-09T21:24:02.736Z,51.58
2022-10-09T21:26:48.921Z,51.29
2022-10-09T21:29:35.290Z,51.32
2022-10-09T21:32:21.178Z,51.42
2022-10-09T21:35:07.455Z,51.64
2022-10-09T21:37:53.795Z,51.81
2022-10-09T21:40:40.081Z,51.44
2022-10-09T21:43:26.414Z,51.65
2022-10-09T21:46:12.250Z,51.73
2022-10-09T21:48:58.306Z,51.68
2022-10-09T21:51:44.438Z,51.96
2022-10-09T21:54:30.336Z,52.00
2022-10-09T21:57:16.244Z,51.92
2022-10-09T22:00:02.105Z,51.98
2022-10-09T22:02:50.798Z,51.93
2022-10-09T22:05:39.782Z,52.05
2022-10-09T22:08:26.242Z,52.12
2022-10-09T22:11:12.581Z,51.83
2022-10-09T22:13:58.629Z,51.87
2022-10-09T22:16:44.867Z,51.92
2022-10-09T22:19:31.753Z,52.12
2022-10-09T22:22:18.222Z,51.93
2022-10-09T22:25:04.436Z,52.20
2022-10-09T22:27:50.332Z,51.93
2022-10-09T22:30:36.435Z,52.14
2022-10-09T22:33:22.659Z,52.26
2022-10-09T22:36:12.630Z,52.35
2022-10-09T22:39:00.769Z,52.44
2022-10-09T22:41:46.793Z,52.43
2022-10-09T22:44:32.661Z,52.38
2022-10-09T22:47:18.549Z,52.10
2022-10-09T22:50:04.788Z,52.43
2022-10-09T22:52:51.287Z,52.63
2022-10-09T22:55:40.695Z,52.57
2022-10-09T22:58:27.110Z,52.68
2022-10-09T23:01:20.697Z,52.41
2022-10-09T23:04:09.872Z,52.65
2022-10-09T23:06:58.105Z,52.57
2022-10-09T23:09:44.262Z,52.27
2022-10-09T23:12:30.215Z,52.83
2022-10-09T23:15:16.213Z,52.76
2022-10-09T23:18:03.314Z,52.81
2022-10-09T23:20:49.382Z,52.80
2022-10-09T23:23:35.451Z,52.45
2022-10-09T23:26:23.968Z,52.80
2022-10-09T23:29:14.252Z,52.91
2022-10-09T23:32:00.391Z,52.77
2022-10-09T23:34:46.435Z,52.68
2022-10-09T23:37:32.689Z,52.98
2022-10-09T23:40:18.853Z,52.63
2022-10-09T23:43:04.918Z,52.87
2022-10-09T23:45:51.464Z,52.70
2022-10-09T23:48:37.532Z,52.75
2022-10-09T23:51:25.046Z,52.82
2022-10-09T23:54:11.589Z,52.87
2022-10-09T23:56:57.392Z,52.94
2022-10-09T23:59:43.441Z,53.26
